Time;durP1;ratioP1;P1;durP2;ratioP2;P2;SDS_P1;SDS_P2;PMS_P1;PMS_P2;Temp;Humidity;BMP_temperature;BMP_pressure;BME280_temperature;BME280_humidity;BME280_pressure;Samples;Min_cycle;Max_cycle;Signal;HPM_P1;HPM_P2
2021/08/16 00:01:47;;;;;;;2.90;2.70;;;16.40;77.70;;;;;;4973230;28;20049;-72
2021/08/16 00:04:15;;;;;;;3.35;2.63;;;16.50;78.60;;;;;;4974699;28;20049;-71
2021/08/16 00:06:42;;;;;;;2.42;2.33;;;16.50;76.40;;;;;;4974607;28;20023;-70
2021/08/16 00:09:10;;;;;;;2.33;2.22;;;16.60;77.60;;;;;;4974557;28;20030;-70
2021/08/16 00:11:39;;;;;;;2.60;2.40;;;16.60;76.60;;;;;;4974444;28;20377;-70
2021/08/16 00:14:06;;;;;;;2.70;2.50;;;16.70;76.90;;;;;;4974390;28;20026;-68
2021/08/16 00:16:35;;;;;;;3.95;2.60;;;16.90;78.20;;;;;;4973019;28;20499;-69
2021/08/16 00:19:02;;;;;;;2.88;2.67;;;17.10;80.80;;;;;;4974454;28;20487;-69
2021/08/16 00:21:30;;;;;;;2.85;2.65;;;17.10;77.70;;;;;;4974385;28;20031;-71
2021/08/16 00:23:57;;;;;;;3.03;2.67;;;17.20;78.80;;;;;;4972977;28;20058;-69
2021/08/16 00:26:25;;;;;;;2.92;2.72;;;17.20;78.50;;;;;;4974200;28;20050;-70
2021/08/16 00:28:52;;;;;;;3.05;2.60;;;17.30;76.60;;;;;;4974359;28;20499;-70
2021/08/16 00:31:23;;;;;;;2.80;2.58;;;17.30;76.70;;;;;;4972885;28;20033;-74
2021/08/16 00:33:50;;;;;;;2.50;2.40;;;17.40;77.40;;;;;;4974420;28;20053;-71
2021/08/16 00:36:18;;;;;;;2.25;2.15;;;17.50;76.70;;;;;;4974244;28;20019;-72
2021/08/16 00:38:45;;;;;;;2.70;2.50;;;17.50;76.20;;;;;;4974236;28;20392;-73
2021/08/16 00:41:16;;;;;;;3.00;2.65;;;17.70;78.70;;;;;;4974293;28;20023;-73
2021/08/16 00:43:44;;;;;;;2.53;2.30;;;17.80;75.50;;;;;;4973090;28;20026;-71
2021/08/16 00:46:13;;;;;;;2.50;2.30;;;17.80;74.60;;;;;;4974261;28;20027;-72
2021/08/16 00:48:41;;;;;;;2.95;2.75;;;17.80;75.50;;;;;;4972845;28;20029;-72
2021/08/16 00:51:10;;;;;;;1.90;1.80;;;17.90;73.20;;;;;;4974134;28;20033;-71
2021/08/16 00:53:39;;;;;;;2.45;2.00;;;17.80;73.70;;;;;;4973039;28;20387;-72
2021/08/16 00:56:08;;;;;;;1.90;1.80;;;17.90;74.10;;;;;;4974080;28;20093;-71
2021/08/16 00:58:35;;;;;;;1.98;1.88;;;18.00;73.00;;;;;;4972661;28;20031;-72
2021/08/16 01:01:03;;;;;;;2.60;2.10;;;18.10;74.90;;;;;;4972589;28;20490;-71
2021/08/16 01:03:31;;;;;;;2.63;2.40;;;18.20;73.80;;;;;;4973970;28;20030;-72
2021/08/16 01:05:59;;;;;;;2.97;2.35;;;18.30;72.30;;;;;;4973865;28;20026;-76
2021/08/16 01:08:27;;;;;;;4.40;2.33;;;18.30;72.40;;;;;;4978209;28;20060;-73
2021/08/16 01:10:55;;;;;;;2.42;2.28;;;18.30;71.90;;;;;;4976392;28;20035;-71
2021/08/16 01:13:23;;;;;;;2.63;2.20;;;18.30;71.90;;;;;;4976478;28;20026;-71
2021/08/16 01:15:59;;;;;;;2.08;1.98;;;18.30;72.70;;;;;;4977618;28;20047;-72
2021/08/16 01:18:28;;;;;;;3.03;2.20;;;18.30;72.00;;;;;;4977814;28;20023;-72
2021/08/16 01:20:56;;;;;;;2.30;2.20;;;18.40;72.00;;;;;;4977896;28;20023;-72
2021/08/16 01:23:25;;;;;;;2.80;2.60;;;18.70;73.70;;;;;;4976296;28;20059;-72
2021/08/16 01:25:53;;;;;;;2.53;2.10;;;18.70;72.00;;;;;;4977684;28;20042;-71
2021/08/16 01:28:22;;;;;;;3.45;2.15;;;18.80;71.60;;;;;;4977584;28;20380;-71
2021/08/16 01:30:58;;;;;;;2.35;2.20;;;18.90;72.90;;;;;;4977578;28;20476;-70
2021/08/16 01:33:27;;;;;;;2.30;2.10;;;19.00;72.70;;;;;;4976405;28;20029;-71
2021/08/16 01:35:55;;;;;;;3.58;2.40;;;19.10;70.80;;;;;;4977501;28;20073;-72
2021/08/16 01:38:27;;;;;;;2.85;2.45;;;19.10;70.60;;;;;;4977406;28;20050;-71
2021/08/16 01:40:54;;;;;;;2.72;2.53;;;19.20;70.90;;;;;;4977564;28;20054;-70
2021/08/16 01:43:22;;;;;;;4.50;2.45;;;19.20;73.10;;;;;;4976274;28;20082;-71
2021/08/16 01:45:50;;;;;;;2.42;2.22;;;19.40;70.30;;;;;;4977557;28;20023;-70
2021/08/16 01:48:17;;;;;;;2.53;2.42;;;19.20;70.50;;;;;;4977346;28;20023;-70
2021/08/16 01:50:45;;;;;;;2.40;2.20;;;19.10;69.80;;;;;;4977278;28;20054;-71
2021/08/16 01:53:14;;;;;;;2.65;2.45;;;19.10;70.10;;;;;;4976027;28;20058;-69
2021/08/16 01:55:41;;;;;;;2.38;2.28;;;19.20;72.40;;;;;;4975970;28;20041;-71
2021/08/16 01:58:10;;;;;;;3.83;2.20;;;19.30;69.70;;;;;;4977161;28;20027;-70
2021/08/16 02:00:37;;;;;;;2.10;1.90;;;19.40;69.50;;;;;;4977003;28;20026;-71
2021/08/16 02:03:05;;;;;;;2.08;1.70;;;19.50;71.90;;;;;;4975702;28;20031;-70
2021/08/16 02:05:33;;;;;;;2.25;2.05;;;19.80;70.60;;;;;;4977037;28;20468;-69
2021/08/16 02:08:01;;;;;;;2.28;2.10;;;19.90;69.90;;;;;;4976957;28;20049;-69
2021/08/16 02:10:29;;;;;;;2.80;1.80;;;20.00;68.70;;;;;;4976932;28;20027;-70
2021/08/16 02:12:56;;;;;;;2.05;1.85;;;20.00;69.90;;;;;;4975350;28;20054;-70
2021/08/16 02:15:24;;;;;;;2.17;1.90;;;20.00;68.80;;;;;;4975246;28;20496;-69
2021/08/16 02:17:51;;;;;;;3.80;2.53;;;20.00;68.20;;;;;;4976543;28;20408;-69
2021/08/16 02:20:18;;;;;;;2.00;1.90;;;20.10;67.90;;;;;;4976740;28;20027;-69
2021/08/16 02:22:46;;;;;;;2.90;2.65;;;20.20;68.20;;;;;;4976697;28;20023;-71
2021/08/16 02:25:13;;;;;;;2.40;2.30;;;20.10;67.60;;;;;;4975660;28;20616;-70
2021/08/16 02:27:48;;;;;;;3.33;2.40;;;20.20;69.80;;;;;;4976628;28;20030;-70
2021/08/16 02:30:17;;;;;;;2.97;2.78;;;20.30;69.90;;;;;;4976573;28;20077;-70
2021/08/16 02:32:46;;;;;;;2.33;2.22;;;20.40;67.20;;;;;;4975281;28;20038;-70
2021/08/16 02:35:14;;;;;;;2.53;2.33;;;20.40;66.90;;;;;;4976408;28;20031;-70
2021/08/16 02:37:41;;;;;;;4.53;2.22;;;20.60;68.20;;;;;;4976555;28;20023;-69
2021/08/16 02:40:10;;;;;;;2.30;2.20;;;20.60;66.30;;;;;;4976366;28;20023;-69
2021/08/16 02:42:39;;;;;;;2.40;2.20;;;20.50;65.60;;;;;;4976432;28;20034;-69
2021/08/16 02:45:07;;;;;;;2.30;2.10;;;20.60;65.90;;;;;;4976467;28;20127;-69
2021/08/16 02:47:35;;;;;;;1.98;1.80;;;20.70;66.40;;;;;;4974986;28;20056;-70
2021/08/16 02:50:03;;;;;;;2.75;2.15;;;20.60;66.10;;;;;;4976218;28;20033;-69
2021/08/16 02:52:30;;;;;;;2.33;2.20;;;20.50;65.50;;;;;;4974789;28;20472;-69
2021/08/16 02:54:59;;;;;;;2.95;2.20;;;20.70;66.00;;;;;;4976257;28;20031;-70
2021/08/16 02:57:27;;;;;;;2.95;2.75;;;20.70;66.30;;;;;;4976346;28;20023;-70
2021/08/16 02:59:54;;;;;;;2.72;2.53;;;20.80;66.60;;;;;;4975931;28;20029;-71
2021/08/16 03:02:22;;;;;;;2.42;2.22;;;20.60;65.40;;;;;;4976017;28;20034;-69
2021/08/16 03:04:49;;;;;;;2.65;2.45;;;20.70;66.20;;;;;;4975820;28;20019;-71
2021/08/16 03:07:17;;;;;;;3.28;2.50;;;20.80;67.30;;;;;;4974481;28;20023;-71
2021/08/16 03:09:44;;;;;;;2.70;2.50;;;20.90;66.80;;;;;;4974440;28;20035;-70
2021/08/16 03:12:13;;;;;;;3.72;2.78;;;21.00;66.30;;;;;;4974451;28;20034;-72
2021/08/16 03:14:40;;;;;;;2.80;2.60;;;21.10;67.30;;;;;;4975514;28;20046;-71
2021/08/16 03:17:07;;;;;;;2.88;2.67;;;21.20;67.00;;;;;;4975507;28;20062;-70
2021/08/16 03:19:35;;;;;;;2.65;2.45;;;21.20;64.70;;;;;;4974132;28;20034;-71
2021/08/16 03:22:02;;;;;;;2.80;2.60;;;21.10;65.80;;;;;;4974169;28;20062;-72
2021/08/16 03:24:32;;;;;;;2.83;2.15;;;21.00;64.40;;;;;;4975343;28;20049;-72
2021/08/16 03:27:00;;;;;;;2.20;2.10;;;21.20;65.30;;;;;;4975518;28;20040;-71
2021/08/16 03:29:27;;;;;;;2.80;2.60;;;21.30;68.50;;;;;;4973384;28;20038;-71
2021/08/16 03:31:55;;;;;;;3.03;2.72;;;21.30;64.90;;;;;;4973903;28;20027;-71
2021/08/16 03:34:22;;;;;;;2.75;2.40;;;21.50;66.10;;;;;;4973849;28;20019;-70
2021/08/16 03:36:49;;;;;;;3.05;2.80;;;21.50;64.50;;;;;;4974054;28;20436;-70
2021/08/16 03:39:17;;;;;;;2.85;2.55;;;21.40;64.60;;;;;;4975127;28;20019;-70
2021/08/16 03:41:44;;;;;;;2.75;2.65;;;21.50;65.90;;;;;;4975203;28;20022;-70
2021/08/16 03:44:11;;;;;;;2.67;2.42;;;21.60;64.20;;;;;;4973790;28;20377;-70
2021/08/16 03:46:39;;;;;;;2.38;2.10;;;21.40;64.30;;;;;;4973794;28;20027;-70
2021/08/16 03:49:06;;;;;;;2.22;2.10;;;21.60;64.80;;;;;;4975095;28;20027;-70
2021/08/16 03:51:33;;;;;;;2.65;2.45;;;21.60;63.90;;;;;;4974970;28;20023;-70
2021/08/16 03:54:01;;;;;;;2.92;2.67;;;21.60;63.50;;;;;;4975086;28;20109;-71
2021/08/16 03:56:28;;;;;;;2.88;2.67;;;21.70;62.90;;;;;;4974938;28;20029;-70
2021/08/16 03:58:55;;;;;;;2.97;2.75;;;21.60;62.40;;;;;;4974854;28;20391;-70
2021/08/16 04:01:22;;;;;;;2.45;2.30;;;21.60;62.80;;;;;;4975016;28;20033;-70
2021/08/16 04:03:50;;;;;;;5.60;2.58;;;21.60;62.80;;;;;;4974722;28;20030;-70
2021/08/16 04:06:17;;;;;;;2.60;2.50;;;21.60;63.20;;;;;;4974666;28;20034;-71
2021/08/16 04:08:44;;;;;;;2.50;2.30;;;21.60;62.80;;;;;;4974572;28;20495;-71
2021/08/16 04:11:13;;;;;;;3.50;3.30;;;21.60;62.30;;;;;;4974527;28;20023;-69
2021/08/16 04:13:41;;;;;;;2.92;2.72;;;21.50;62.30;;;;;;4974614;28;20023;-71
2021/08/16 04:16:08;;;;;;;3.55;2.60;;;21.60;62.70;;;;;;4973122;28;20078;-72
2021/08/16 04:18:36;;;;;;;3.28;2.20;;;21.70;62.90;;;;;;4974517;28;20027;-71
2021/08/16 04:21:04;;;;;;;2.60;2.50;;;21.60;62.30;;;;;;4973070;28;20093;-70
2021/08/16 04:23:32;;;;;;;2.85;2.65;;;21.70;62.80;;;;;;4974696;28;20019;-70
2021/08/16 04:25:59;;;;;;;2.75;2.50;;;21.80;62.50;;;;;;4973085;28;20019;-70
2021/08/16 04:28:26;;;;;;;3.45;3.10;;;21.80;62.20;;;;;;4974431;28;20073;-70
2021/08/16 04:30:54;;;;;;;3.15;2.53;;;21.80;62.20;;;;;;4974419;28;20019;-69
2021/08/16 04:33:24;;;;;;;2.97;2.67;;;21.80;62.10;;;;;;4972801;28;20145;-68
2021/08/16 04:35:53;;;;;;;4.47;2.53;;;21.80;62.10;;;;;;4972867;28;20023;-69
2021/08/16 04:38:23;;;;;;;2.83;2.60;;;21.70;62.00;;;;;;4974238;28;20034;-70
2021/08/16 04:40:52;;;;;;;4.20;2.70;;;21.70;62.30;;;;;;4974085;28;20494;-70
2021/08/16 04:43:21;;;;;;;5.80;3.00;;;21.70;63.10;;;;;;4974108;28;20019;-71
2021/08/16 04:45:48;;;;;;;3.55;2.55;;;21.70;63.30;;;;;;4974082;28;20025;-70
2021/08/16 04:48:16;;;;;;;2.70;2.50;;;21.70;62.40;;;;;;4972743;28;20023;-71
2021/08/16 04:50:43;;;;;;;3.38;3.08;;;21.70;62.90;;;;;;4974080;28;20030;-71
2021/08/16 04:53:10;;;;;;;3.17;2.92;;;21.60;62.50;;;;;;4973960;28;20487;-70
2021/08/16 04:55:38;;;;;;;3.25;2.60;;;21.60;62.70;;;;;;4974029;28;20118;-71
2021/08/16 04:58:05;;;;;;;3.33;3.03;;;21.60;63.40;;;;;;4973995;28;20027;-71
2021/08/16 05:00:33;;;;;;;3.28;2.97;;;21.60;62.40;;;;;;4973953;28;20102;-70
2021/08/16 05:03:02;;;;;;;2.70;2.50;;;21.50;62.60;;;;;;4973854;28;20472;-70
2021/08/16 05:05:32;;;;;;;4.63;2.97;;;21.50;62.60;;;;;;4972517;28;20026;-70
2021/08/16 05:08:01;;;;;;;3.22;2.70;;;21.50;62.40;;;;;;4972661;28;20041;-70
2021/08/16 05:10:30;;;;;;;3.72;2.70;;;21.50;63.20;;;;;;4973734;28;20053;-71
2021/08/16 05:13:00;;;;;;;3.83;2.58;;;21.40;63.80;;;;;;4973767;28;20452;-70
2021/08/16 05:15:29;;;;;;;3.55;3.22;;;21.40;62.80;;;;;;4972270;28;20066;-70
2021/08/16 05:17:58;;;;;;;2.85;2.65;;;21.40;63.40;;;;;;4972426;28;20031;-70
2021/08/16 05:20:26;;;;;;;4.37;2.83;;;21.30;63.30;;;;;;4973680;28;20495;-71
2021/08/16 05:22:53;;;;;;;2.67;2.47;;;21.30;62.50;;;;;;4973839;28;20239;-70
2021/08/16 05:25:20;;;;;;;5.00;2.50;;;21.30;60.20;;;;;;4973826;28;20447;-70
2021/08/16 05:27:49;;;;;;;3.65;2.33;;;21.40;59.00;;;;;;4972315;28;20491;-70
2021/08/16 05:30:16;;;;;;;3.33;2.03;;;21.40;58.30;;;;;;4973849;28;20069;-70
2021/08/16 05:32:44;;;;;;;2.65;2.45;;;21.40;59.70;;;;;;4973629;28;20099;-70
2021/08/16 05:35:11;;;;;;;2.53;2.33;;;21.50;59.50;;;;;;4972243;28;20051;-70
2021/08/16 05:37:39;;;;;;;3.08;2.50;;;21.50;60.10;;;;;;4973639;28;20023;-71
2021/08/16 05:40:07;;;;;;;2.72;2.45;;;21.40;61.00;;;;;;4973601;28;20019;-69
2021/08/16 05:42:35;;;;;;;2.92;2.10;;;21.40;61.20;;;;;;4973658;28;20033;-70
2021/08/16 05:45:03;;;;;;;2.88;2.63;;;21.30;61.10;;;;;;4973541;28;20019;-68
2021/08/16 05:47:31;;;;;;;4.68;2.78;;;21.30;61.30;;;;;;4973415;28;20133;-68
2021/08/16 05:50:00;;;;;;;6.68;3.20;;;21.30;61.70;;;;;;4973361;28;20472;-70
2021/08/16 05:52:27;;;;;;;2.85;2.50;;;21.30;61.60;;;;;;4973762;28;20027;-71
2021/08/16 05:54:55;;;;;;;3.50;2.63;;;21.30;61.50;;;;;;4977045;28;20031;-70
2021/08/16 05:57:22;;;;;;;5.30;2.58;;;21.20;62.60;;;;;;4977103;28;20019;-70
2021/08/16 05:59:49;;;;;;;5.07;2.80;;;21.10;61.50;;;;;;4977254;28;20029;-70
2021/08/16 06:02:17;;;;;;;3.75;2.60;;;21.00;61.30;;;;;;4976837;28;20102;-70
2021/08/16 06:04:44;;;;;;;4.03;2.55;;;21.00;61.60;;;;;;4976911;28;20027;-70
2021/08/16 06:07:12;;;;;;;2.45;2.25;;;20.90;62.10;;;;;;4975617;28;20030;-70
2021/08/16 06:09:39;;;;;;;3.10;2.38;;;20.80;61.40;;;;;;4975560;28;20033;-71
2021/08/16 06:12:07;;;;;;;3.10;2.85;;;20.80;61.90;;;;;;4976655;28;20372;-71
2021/08/16 06:14:35;;;;;;;5.00;2.65;;;20.70;62.60;;;;;;4976464;28;20047;-70
2021/08/16 06:17:02;;;;;;;3.30;2.50;;;20.60;62.60;;;;;;4976792;28;20015;-70
2021/08/16 06:19:29;;;;;;;3.78;2.67;;;20.60;62.70;;;;;;4976612;28;20027;-70
2021/08/16 06:21:57;;;;;;;3.53;2.30;;;20.50;63.30;;;;;;4975298;28;20034;-70
2021/08/16 06:24:24;;;;;;;4.93;2.40;;;20.40;62.60;;;;;;4976599;28;20026;-70
2021/08/16 06:26:51;;;;;;;2.65;2.45;;;20.30;62.80;;;;;;4976481;28;20098;-69
2021/08/16 06:29:18;;;;;;;3.85;2.40;;;20.30;63.10;;;;;;4976460;28;20146;-70
2021/08/16 06:31:46;;;;;;;3.60;2.70;;;20.20;63.50;;;;;;4975342;28;20113;-70
2021/08/16 06:34:13;;;;;;;4.05;2.80;;;20.00;63.90;;;;;;4975229;28;20443;-70
2021/08/16 06:36:43;;;;;;;3.60;2.80;;;20.00;64.30;;;;;;4976486;28;20015;-69
2021/08/16 06:39:21;;;;;;;2.55;2.30;;;19.90;64.70;;;;;;4975139;28;20026;-70
2021/08/16 06:41:54;;;;;;;3.28;2.90;;;19.80;64.60;;;;;;4974934;28;20050;-69
2021/08/16 06:44:23;;;;;;;4.53;2.83;;;19.70;64.50;;;;;;4976525;28;20050;-70
2021/08/16 06:46:51;;;;;;;4.25;2.88;;;19.70;64.70;;;;;;4976152;28;20099;-70
2021/08/16 06:49:18;;;;;;;3.13;2.72;;;19.60;65.10;;;;;;4976072;28;20034;-71
2021/08/16 06:51:46;;;;;;;2.92;2.50;;;19.50;65.30;;;;;;4976601;28;20065;-70
2021/08/16 06:54:13;;;;;;;4.82;2.47;;;19.30;65.40;;;;;;4976250;28;20026;-71
2021/08/16 06:56:41;;;;;;;5.03;2.80;;;19.30;66.40;;;;;;4976048;28;20122;-71
2021/08/16 06:59:08;;;;;;;2.65;2.45;;;19.20;66.60;;;;;;4975770;28;20019;-70
2021/08/16 07:01:35;;;;;;;4.07;2.47;;;19.00;67.10;;;;;;4974622;28;20027;-70
2021/08/16 07:04:02;;;;;;;3.70;2.28;;;19.00;67.20;;;;;;4974525;28;20391;-70
2021/08/16 07:06:30;;;;;;;3.65;2.17;;;18.80;67.10;;;;;;4974209;28;20026;-71
2021/08/16 07:08:57;;;;;;;4.40;2.30;;;18.70;67.70;;;;;;4975632;28;20027;-71
2021/08/16 07:11:24;;;;;;;4.93;2.85;;;18.70;68.00;;;;;;4975572;28;20484;-70
2021/08/16 07:13:52;;;;;;;3.28;2.60;;;18.60;68.40;;;;;;4974375;28;20026;-69
2021/08/16 07:16:21;;;;;;;4.13;2.60;;;18.50;68.60;;;;;;4975399;28;20035;-70
2021/08/16 07:18:49;;;;;;;4.80;2.80;;;18.30;68.80;;;;;;4973827;28;20075;-69
2021/08/16 07:21:16;;;;;;;3.00;2.70;;;18.20;69.10;;;;;;4975316;28;20089;-69
2021/08/16 07:23:43;;;;;;;3.70;2.70;;;18.10;69.60;;;;;;4975263;28;20074;-69
2021/08/16 07:26:11;;;;;;;4.13;2.70;;;18.10;68.80;;;;;;4974008;28;20019;-70
2021/08/16 07:28:38;;;;;;;4.45;2.80;;;18.00;68.90;;;;;;4975306;28;20507;-69
2021/08/16 07:31:06;;;;;;;3.75;2.50;;;17.90;68.80;;;;;;4975148;28;20029;-70
2021/08/16 07:33:33;;;;;;;3.97;2.50;;;17.90;68.30;;;;;;4975387;28;20029;-69
2021/08/16 07:36:00;;;;;;;3.42;2.53;;;17.90;68.40;;;;;;4975356;28;20038;-69
2021/08/16 07:38:28;;;;;;;5.07;2.83;;;17.90;68.60;;;;;;4975035;28;20421;-70
2021/08/16 07:40:55;;;;;;;6.90;2.95;;;17.80;69.00;;;;;;4975170;28;20046;-69
2021/08/16 07:43:22;;;;;;;51.65;15.18;;;17.60;69.60;;;;;;4973596;28;20038;-70
2021/08/16 07:45:51;;;;;;;53.22;16.58;;;17.50;70.60;;;;;;4974028;28;20503;-70
2021/08/16 07:48:19;;;;;;;17.73;6.55;;;17.40;72.60;;;;;;4975235;28;20023;-71
2021/08/16 07:50:46;;;;;;;46.65;14.65;;;17.30;71.70;;;;;;4974832;28;20595;-71
2021/08/16 07:53:13;;;;;;;4.82;2.00;;;17.30;72.20;;;;;;4974736;28;20034;-70
2021/08/16 07:55:41;;;;;;;2.50;2.30;;;17.30;72.00;;;;;;4975010;28;20105;-70
2021/08/16 07:58:09;;;;;;;3.08;2.20;;;17.30;71.40;;;;;;4974655;28;20513;-70
2021/08/16 08:00:36;;;;;;;4.85;2.75;;;17.30;71.70;;;;;;4974639;28;20030;-70
2021/08/16 08:03:04;;;;;;;3.15;2.83;;;17.20;71.90;;;;;;4974680;28;20054;-70
2021/08/16 08:05:31;;;;;;;5.80;3.10;;;17.20;72.20;;;;;;4973098;28;20097;-70
2021/08/16 08:08:00;;;;;;;2.60;2.40;;;17.10;72.60;;;;;;4974435;28;20035;-71
2021/08/16 08:10:27;;;;;;;5.88;3.67;;;17.00;72.90;;;;;;4973022;28;20023;-71
2021/08/16 08:12:55;;;;;;;10.00;5.40;;;17.00;73.50;;;;;;4974680;28;20030;-71
2021/08/16 08:15:22;;;;;;;3.88;2.63;;;16.90;74.50;;;;;;4973895;28;20503;-71
2021/08/16 08:17:50;;;;;;;4.22;2.50;;;16.90;73.80;;;;;;4974313;28;20025;-71
2021/08/16 08:20:17;;;;;;;3.15;2.53;;;16.90;73.80;;;;;;4973056;28;20027;-70
2021/08/16 08:22:45;;;;;;;3.80;2.22;;;16.80;74.10;;;;;;4974431;28;20069;-71
2021/08/16 08:25:12;;;;;;;6.00;3.10;;;16.70;74.30;;;;;;4974668;28;20464;-71
2021/08/16 08:27:40;;;;;;;5.32;3.25;;;16.70;74.80;;;;;;4972766;28;20023;-69
2021/08/16 08:30:08;;;;;;;4.63;3.13;;;16.60;75.70;;;;;;4974378;28;20033;-70
2021/08/16 08:32:50;;;;;;;4.45;3.10;;;16.60;76.40;;;;;;4972857;28;20034;-70
2021/08/16 08:35:19;;;;;;;2.90;2.70;;;16.50;77.00;;;;;;4972988;28;20050;-71
2021/08/16 08:37:47;;;;;;;6.32;3.58;;;16.50;76.80;;;;;;4973029;28;20499;-71
2021/08/16 08:40:15;;;;;;;3.05;2.58;;;16.30;77.40;;;;;;4974846;28;20023;-71
2021/08/16 08:42:48;;;;;;;3.65;2.50;;;16.20;77.20;;;;;;4974703;28;20027;-73
2021/08/16 08:45:16;;;;;;;3.88;2.63;;;16.10;77.50;;;;;;4974748;28;20051;-72
2021/08/16 08:47:45;;;;;;;7.50;3.60;;;16.00;78.10;;;;;;4972748;28;20568;-74
2021/08/16 08:50:15;;;;;;;5.22;3.08;;;15.90;78.50;;;;;;4974015;28;20031;-72
2021/08/16 08:52:46;;;;;;;3.88;2.30;;;15.80;78.50;;;;;;4972694;28;20054;-73
2021/08/16 08:55:14;;;;;;;2.97;2.58;;;15.70;78.90;;;;;;4974127;28;20093;-71
2021/08/16 08:57:42;;;;;;;3.08;2.58;;;15.70;79.00;;;;;;4974317;28;20014;-72
2021/08/16 09:00:16;;;;;;;2.80;2.30;;;15.60;79.40;;;;;;4974218;28;20018;-72
2021/08/16 09:02:55;;;;;;;4.60;2.63;;;15.50;79.30;;;;;;4974851;28;20266;-73
2021/08/16 09:05:22;;;;;;;3.17;2.88;;;15.50;79.40;;;;;;4974392;28;20484;-72
2021/08/16 09:07:49;;;;;;;4.00;2.67;;;15.40;79.60;;;;;;4973062;28;20065;-72
2021/08/16 09:10:18;;;;;;;3.10;2.70;;;15.40;80.40;;;;;;4973036;28;20464;-71
2021/08/16 09:12:45;;;;;;;4.85;2.80;;;15.30;80.00;;;;;;4974447;28;20023;-71
2021/08/16 09:15:23;;;;;;;2.47;2.28;;;15.30;80.70;;;;;;4974008;28;20500;-72
2021/08/16 09:17:52;;;;;;;2.72;2.45;;;15.20;80.50;;;;;;4973171;28;20034;-71
2021/08/16 09:20:33;;;;;;;3.22;2.35;;;15.10;80.80;;;;;;4974029;28;20526;-71
2021/08/16 09:23:07;;;;;;;2.55;2.40;;;15.10;80.30;;;;;;4974240;28;20081;-71
2021/08/16 09:25:39;;;;;;;2.35;2.20;;;15.10;80.10;;;;;;4974008;28;20074;-71
2021/08/16 09:28:07;;;;;;;5.20;2.40;;;15.30;85.60;;;;;;4975875;28;20023;-72
2021/08/16 09:30:37;;;;;;;2.88;1.90;;;15.20;85.00;;;;;;4978132;28;20029;-73
2021/08/16 09:33:18;;;;;;;5.03;2.20;;;15.20;85.10;;;;;;4976481;28;20054;-71
2021/08/16 09:35:51;;;;;;;;;;;15.10;85.10;;;;;;4977207;28;20022;-72
2021/08/16 09:38:18;;;;;;;2.55;2.03;;;15.10;84.60;;;;;;4976838;28;19996;-73
2021/08/16 09:40:46;;;;;;;3.65;2.10;;;15.00;84.80;;;;;;4978137;28;20027;-73
2021/08/16 09:43:13;;;;;;;2.28;2.00;;;15.10;85.00;;;;;;4976479;28;20034;-73
2021/08/16 09:45:41;;;;;;;2.50;2.30;;;15.00;84.90;;;;;;4978410;28;20027;-73
2021/08/16 09:48:19;;;;;;;2.90;2.55;;;15.00;85.00;;;;;;4976201;28;20034;-73
2021/08/16 09:50:51;;;;;;;2.75;2.40;;;14.90;85.10;;;;;;4977478;28;20089;-75
2021/08/16 09:53:23;;;;;;;2.60;2.40;;;14.80;84.90;;;;;;4977340;28;20023;-74
2021/08/16 09:56:02;;;;;;;3.15;2.65;;;14.90;85.00;;;;;;4977308;28;20169;-72
2021/08/16 09:58:30;;;;;;;2.42;2.22;;;14.80;85.60;;;;;;4976181;28;20026;-72
2021/08/16 10:00:58;;;;;;;3.05;2.17;;;14.80;85.40;;;;;;4975875;28;20030;-71
2021/08/16 10:03:27;;;;;;;2.47;2.20;;;14.70;85.80;;;;;;4975687;28;20050;-72
2021/08/16 10:05:56;;;;;;;1.90;1.80;;;14.70;84.60;;;;;;4976987;28;20062;-71
2021/08/16 10:08:25;;;;;;;2.28;2.00;;;14.70;84.60;;;;;;4976929;28;20415;-72
2021/08/16 10:10:54;;;;;;;2.00;1.80;;;14.70;84.60;;;;;;4975439;28;20030;-71
2021/08/16 10:13:22;;;;;;;3.72;1.60;;;14.60;84.40;;;;;;4976793;28;20051;-73
2021/08/16 10:16:03;;;;;;;2.70;2.50;;;14.70;84.60;;;;;;4975386;28;20051;-71
2021/08/16 10:19:02;;;;;;;2.35;2.25;;;14.60;84.40;;;;;;4976859;28;20033;-71
2021/08/16 10:21:30;;;;;;;2.42;2.20;;;14.60;84.10;;;;;;4976829;28;20022;-72
2021/08/16 10:23:58;;;;;;;2.53;2.33;;;14.50;84.30;;;;;;4975364;28;20027;-71
2021/08/16 10:26:36;;;;;;;2.30;2.10;;;14.50;84.20;;;;;;4975528;28;20077;-71
2021/08/16 10:29:05;;;;;;;4.45;2.30;;;14.50;84.10;;;;;;4976631;28;20030;-72
2021/08/16 10:31:35;;;;;;;2.63;2.00;;;14.40;84.10;;;;;;4976543;28;20447;-70
2021/08/16 10:34:04;;;;;;;2.42;2.20;;;14.40;84.10;;;;;;4976479;28;20253;-71
2021/08/16 10:36:32;;;;;;;2.67;2.28;;;14.40;84.20;;;;;;4975135;28;20030;-71
2021/08/16 10:39:02;;;;;;;2.88;2.40;;;14.40;84.20;;;;;;4976307;28;20432;-71
2021/08/16 10:41:42;;;;;;;2.25;2.10;;;14.30;84.40;;;;;;4976351;28;20476;-71
2021/08/16 10:44:18;;;;;;;2.60;2.38;;;14.30;84.30;;;;;;4975086;28;20026;-71
2021/08/16 10:46:59;;;;;;;2.95;2.30;;;14.30;85.20;;;;;;4976327;28;20019;-71
2021/08/16 10:49:40;;;;;;;3.63;2.10;;;14.20;85.50;;;;;;4976295;28;20023;-73
2021/08/16 10:52:20;;;;;;;;;;;14.20;85.20;;;;;;4975076;28;20031;-72
2021/08/16 10:54:48;;;;;;;2.15;2.03;;;14.20;85.20;;;;;;4976102;28;20413;-71
2021/08/16 10:57:16;;;;;;;2.95;2.20;;;14.10;85.30;;;;;;4976039;28;20451;-72
2021/08/16 10:59:45;;;;;;;2.20;2.10;;;14.10;85.50;;;;;;4975922;28;20548;-71
2021/08/16 11:02:12;;;;;;;2.75;2.55;;;14.10;85.70;;;;;;4974484;28;20451;-69
2021/08/16 11:04:45;;;;;;;2.45;2.25;;;14.10;85.60;;;;;;4975714;28;20022;-69
2021/08/16 11:07:23;;;;;;;2.33;2.20;;;14.00;85.70;;;;;;4975745;28;20045;-70
2021/08/16 11:10:06;;;;;;;2.53;2.10;;;14.00;85.80;;;;;;4974396;28;20054;-71
2021/08/16 11:12:45;;;;;;;2.20;2.00;;;14.00;85.70;;;;;;4975590;28;20078;-70
2021/08/16 11:15:19;;;;;;;3.90;2.10;;;14.00;85.60;;;;;;4973609;28;20500;-69
2021/08/16 11:17:47;;;;;;;2.47;2.28;;;14.00;85.70;;;;;;4973341;28;20491;-70
2021/08/16 11:20:15;;;;;;;3.15;2.17;;;14.00;85.50;;;;;;4974575;28;20034;-69
2021/08/16 11:22:54;;;;;;;2.25;2.10;;;14.00;85.20;;;;;;4974491;28;20459;-70
2021/08/16 11:25:22;;;;;;;3.05;2.30;;;14.00;85.10;;;;;;4974502;28;20019;-71
2021/08/16 11:27:49;;;;;;;6.60;2.38;;;14.00;85.10;;;;;;4973124;28;20080;-70
2021/08/16 11:30:17;;;;;;;2.55;2.35;;;14.00;85.20;;;;;;4973103;28;20114;-71
2021/08/16 11:32:44;;;;;;;2.47;2.28;;;13.90;85.70;;;;;;4972838;28;20037;-71
2021/08/16 11:35:12;;;;;;;2.83;2.50;;;13.90;85.10;;;;;;4974235;28;20019;-71
2021/08/16 11:37:48;;;;;;;2.40;2.20;;;13.90;85.00;;;;;;4974319;28;20455;-72
2021/08/16 11:40:16;;;;;;;4.68;2.38;;;13.80;85.00;;;;;;4973036;28;20503;-72
2021/08/16 11:42:45;;;;;;;2.65;2.10;;;13.80;85.30;;;;;;4974186;28;20034;-71
2021/08/16 11:45:17;;;;;;;2.22;2.13;;;13.80;85.30;;;;;;4974117;28;20030;-71
2021/08/16 11:47:48;;;;;;;3.05;2.50;;;13.70;85.00;;;;;;4973242;28;20431;-71
2021/08/16 11:50:20;;;;;;;2.30;2.10;;;13.70;85.20;;;;;;4973810;28;20027;-72
2021/08/16 11:52:51;;;;;;;2.30;2.20;;;13.70;84.80;;;;;;4972853;28;20031;-72
2021/08/16 11:55:45;;;;;;;2.33;2.22;;;13.60;85.00;;;;;;4974219;28;20027;-70
2021/08/16 11:58:12;;;;;;;3.47;2.70;;;13.70;85.00;;;;;;4969119;28;20060;-72
2021/08/16 12:00:41;;;;;;;2.90;2.60;;;13.60;85.20;;;;;;4972892;28;20030;-71
2021/08/16 12:03:08;;;;;;;3.17;2.42;;;13.50;85.20;;;;;;4974082;28;20023;-71
2021/08/16 12:05:36;;;;;;;3.35;2.45;;;13.60;85.80;;;;;;4972794;28;20495;-70
2021/08/16 12:08:03;;;;;;;2.40;2.20;;;13.60;85.50;;;;;;4974070;28;20031;-71
2021/08/16 12:10:44;;;;;;;2.15;2.05;;;13.60;85.20;;;;;;4972653;28;20114;-70
2021/08/16 12:13:11;;;;;;;2.35;2.15;;;13.60;85.70;;;;;;4974049;28;20026;-72
2021/08/16 12:15:43;;;;;;;2.42;2.20;;;13.60;85.50;;;;;;4798214;28;5076272;-70
2021/08/16 12:18:11;;;;;;;2.47;2.20;;;13.70;85.20;;;;;;4975424;28;20035;-72
2021/08/16 12:20:44;;;;;;;3.00;2.40;;;13.70;85.20;;;;;;4973321;28;20019;-71
2021/08/16 12:23:24;;;;;;;2.30;2.10;;;13.70;85.70;;;;;;4973301;28;20552;-70
2021/08/16 12:25:52;;;;;;;3.30;2.55;;;13.60;85.50;;;;;;4974806;28;20476;-70
2021/08/16 12:28:19;;;;;;;4.20;2.40;;;13.60;86.00;;;;;;4974496;28;20033;-71
2021/08/16 12:30:47;;;;;;;2.42;2.22;;;13.60;86.50;;;;;;4974445;28;20026;-71
2021/08/16 12:33:18;;;;;;;2.63;2.40;;;13.50;86.10;;;;;;4974413;28;20038;-71
2021/08/16 12:35:59;;;;;;;2.97;2.78;;;13.50;86.30;;;;;;4973066;28;20047;-70
2021/08/16 12:38:31;;;;;;;3.45;2.40;;;13.50;86.50;;;;;;4974397;28;20054;-71
2021/08/16 12:41:05;;;;;;;2.70;2.38;;;13.40;86.70;;;;;;4973050;28;20472;-71
2021/08/16 12:43:50;;;;;;;2.53;2.00;;;13.40;87.20;;;;;;4974367;28;20023;-70
2021/08/16 12:46:34;;;;;;;2.50;2.30;;;13.40;87.30;;;;;;4974433;28;20026;-70
2021/08/16 12:49:04;;;;;;;2.40;2.30;;;13.40;87.30;;;;;;4974239;28;20023;-70
2021/08/16 12:51:33;;;;;;;3.00;2.80;;;13.40;87.90;;;;;;4972816;28;20089;-72
2021/08/16 12:54:02;;;;;;;3.35;2.80;;;13.30;88.20;;;;;;4974229;28;20027;-73
2021/08/16 12:56:31;;;;;;;2.90;2.78;;;13.40;89.40;;;;;;4972897;28;20074;-71
2021/08/16 12:58:58;;;;;;;2.97;2.67;;;13.30;88.90;;;;;;4974108;28;20033;-71